Time;durP1;ratioP1;P1;durP2;ratioP2;P2;SDS_P1;SDS_P2;PMS_P1;PMS_P2;Temp;Humidity;BMP_temperature;BMP_pressure;BME280_temperature;BME280_humidity;BME280_pressure;Samples;Min_cycle;Max_cycle;Signal;HPM_P1;HPM_P2
2023/04/16 00:00:30;;;;;;;1.33;0.95;;;17.80;65.90;;;;;;4887129;29;45421;-73
2023/04/16 00:02:57;;;;;;;1.67;0.90;;;17.80;65.90;;;;;;4887336;29;47555;-73
2023/04/16 00:05:24;;;;;;;1.33;0.82;;;17.80;65.70;;;;;;4888201;29;46079;-72
2023/04/16 00:07:51;;;;;;;1.45;0.80;;;17.80;65.80;;;;;;4888692;29;45419;-73
2023/04/16 00:10:18;;;;;;;1.60;0.95;;;17.80;65.90;;;;;;4888267;29;45542;-73
2023/04/16 00:12:46;;;;;;;1.33;0.70;;;17.80;65.80;;;;;;4888337;29;46659;-72
2023/04/16 00:15:13;;;;;;;2.33;0.80;;;17.80;65.90;;;;;;4895344;29;45246;-73
2023/04/16 00:17:40;;;;;;;1.55;0.70;;;17.80;66.20;;;;;;4887913;29;45298;-73
2023/04/16 00:20:08;;;;;;;2.33;0.98;;;17.80;66.10;;;;;;4885972;29;45283;-73
2023/04/16 00:22:35;;;;;;;2.55;1.00;;;17.80;66.10;;;;;;4892892;29;46774;-72
2023/04/16 00:25:02;;;;;;;1.23;0.70;;;17.80;66.10;;;;;;4898678;29;46132;-73
2023/04/16 00:27:29;;;;;;;1.85;0.60;;;17.80;66.10;;;;;;4887547;29;45448;-73
2023/04/16 00:29:57;;;;;;;1.58;0.68;;;17.80;66.10;;;;;;4890045;29;45343;-72
2023/04/16 00:32:23;;;;;;;2.83;1.00;;;17.90;66.30;;;;;;4884429;29;47524;-72
2023/04/16 00:34:50;;;;;;;3.30;1.13;;;17.90;66.10;;;;;;4887976;29;45482;-73
2023/04/16 00:37:17;;;;;;;2.03;0.98;;;17.90;66.20;;;;;;4885604;29;45616;-73
2023/04/16 00:39:44;;;;;;;2.53;1.00;;;17.90;66.00;;;;;;4885228;29;45502;-73
2023/04/16 00:42:10;;;;;;;1.38;0.88;;;17.80;65.90;;;;;;4894301;29;46311;-73
2023/04/16 00:44:37;;;;;;;1.25;0.70;;;17.80;65.80;;;;;;4885893;29;45263;-73
2023/04/16 00:47:06;;;;;;;2.22;0.80;;;17.80;65.80;;;;;;4884182;29;45435;-72
2023/04/16 00:49:33;;;;;;;2.35;1.15;;;17.80;65.90;;;;;;4886003;29;45629;-73
2023/04/16 00:52:02;;;;;;;0.73;0.63;;;17.80;65.80;;;;;;4887476;29;46620;-72
2023/04/16 00:54:28;;;;;;;2.42;1.10;;;17.80;67.00;;;;;;4880092;29;45279;-73
2023/04/16 00:56:57;;;;;;;2.88;0.88;;;17.80;67.00;;;;;;4888040;29;45254;-73
2023/04/16 00:59:23;;;;;;;1.30;0.80;;;17.80;66.00;;;;;;4895830;29;45513;-73
2023/04/16 01:01:50;;;;;;;1.77;0.98;;;17.80;66.00;;;;;;4887188;29;46065;-72
2023/04/16 01:04:18;;;;;;;2.60;1.00;;;17.80;66.10;;;;;;4887352;29;45362;-73
2023/04/16 01:06:45;;;;;;;1.90;1.00;;;17.80;66.10;;;;;;4886470;29;45630;-73
2023/04/16 01:09:12;;;;;;;1.98;0.95;;;17.80;66.10;;;;;;4887472;29;45326;-72
2023/04/16 01:11:39;;;;;;;1.65;0.90;;;17.80;66.10;;;;;;4887667;29;47234;-73
2023/04/16 01:14:05;;;;;;;3.15;0.88;;;17.80;66.10;;;;;;4886768;29;45484;-73
2023/04/16 01:16:33;;;;;;;1.83;1.00;;;17.90;66.10;;;;;;4887364;29;45480;-73
2023/04/16 01:18:59;;;;;;;2.33;0.90;;;17.80;66.10;;;;;;4886248;29;45451;-73
2023/04/16 01:21:27;;;;;;;2.03;1.02;;;17.80;65.90;;;;;;4884263;29;46358;-73
2023/04/16 01:23:54;;;;;;;1.15;0.90;;;17.80;65.90;;;;;;4890244;29;45329;-73
2023/04/16 01:26:21;;;;;;;1.38;0.80;;;17.80;65.90;;;;;;4887477;29;45361;-73
2023/04/16 01:28:48;;;;;;;1.77;1.10;;;17.80;65.90;;;;;;4885489;29;45609;-73
2023/04/16 01:31:15;;;;;;;1.20;0.80;;;17.80;65.90;;;;;;4895989;29;48652;-73
2023/04/16 01:33:41;;;;;;;2.67;0.98;;;17.80;66.00;;;;;;4890581;29;45285;-73
2023/04/16 01:36:08;;;;;;;1.38;0.82;;;17.80;65.90;;;;;;4887465;29;45348;-73
2023/04/16 01:38:36;;;;;;;3.08;1.00;;;17.80;65.90;;;;;;4887966;29;45293;-73
2023/04/16 01:41:03;;;;;;;2.47;1.05;;;17.80;66.90;;;;;;4886764;29;47959;-73
2023/04/16 01:43:30;;;;;;;1.73;1.00;;;17.80;65.90;;;;;;4885996;29;45396;-73
2023/04/16 01:46:13;;;;;;;2.90;1.15;;;17.80;65.80;;;;;;4887124;29;45410;-72
2023/04/16 01:48:40;;;;;;;2.45;1.08;;;17.80;66.00;;;;;;4884534;29;45410;-73
2023/04/16 01:51:07;;;;;;;1.80;1.00;;;17.80;66.00;;;;;;4887747;29;47433;-72
2023/04/16 01:53:33;;;;;;;1.50;0.82;;;17.80;66.10;;;;;;4890028;29;45415;-73
2023/04/16 01:56:02;;;;;;;1.45;1.10;;;17.80;66.00;;;;;;4887174;29;45251;-72
2023/04/16 01:58:29;;;;;;;1.35;1.05;;;17.80;66.00;;;;;;4879633;29;45254;-72
2023/04/16 02:00:56;;;;;;;3.78;1.33;;;17.80;66.00;;;;;;4882719;29;48251;-72
2023/04/16 02:03:24;;;;;;;0.95;0.80;;;17.80;66.00;;;;;;4889561;29;45324;-73
2023/04/16 02:05:51;;;;;;;2.83;1.20;;;17.90;66.10;;;;;;4897044;29;45348;-72
2023/04/16 02:08:18;;;;;;;2.90;1.08;;;17.90;65.90;;;;;;4887836;29;45278;-73
2023/04/16 02:10:46;;;;;;;2.35;1.08;;;17.80;65.90;;;;;;4886180;29;46272;-72
2023/04/16 02:13:15;;;;;;;2.53;1.20;;;17.80;65.90;;;;;;4884448;29;45420;-73
2023/04/16 02:15:45;;;;;;;3.63;1.55;;;17.80;65.70;;;;;;4900566;29;45339;-73
2023/04/16 02:18:12;;;;;;;2.28;1.15;;;17.80;65.80;;;;;;4886998;29;45507;-73
2023/04/16 02:20:40;;;;;;;3.08;1.10;;;17.80;65.80;;;;;;4886880;29;46580;-73
2023/04/16 02:23:08;;;;;;;2.58;1.27;;;17.80;65.90;;;;;;4894092;29;46176;-72
2023/04/16 02:25:39;;;;;;;3.13;1.23;;;17.80;65.80;;;;;;4886709;29;45316;-73
2023/04/16 02:28:06;;;;;;;2.35;1.30;;;17.80;65.80;;;;;;4890777;29;45388;-73
2023/04/16 02:30:35;;;;;;;1.92;1.10;;;17.80;65.90;;;;;;4886535;29;47280;-73
2023/04/16 02:33:04;;;;;;;2.55;1.48;;;17.80;65.90;;;;;;4885589;29;45358;-73
2023/04/16 02:35:31;;;;;;;2.80;1.20;;;17.80;66.00;;;;;;4897110;29;45467;-73
2023/04/16 02:37:58;;;;;;;2.42;1.10;;;17.80;66.00;;;;;;4890631;29;45223;-72
2023/04/16 02:40:25;;;;;;;2.50;1.40;;;17.80;66.00;;;;;;4894052;29;46857;-73
2023/04/16 02:42:52;;;;;;;2.88;1.20;;;17.80;66.00;;;;;;4890180;29;46078;-72
2023/04/16 02:45:18;;;;;;;1.70;1.05;;;17.80;65.90;;;;;;4886342;29;45345;-72
2023/04/16 02:47:47;;;;;;;2.72;1.20;;;17.80;65.90;;;;;;4878087;29;45509;-72
2023/04/16 02:50:13;;;;;;;3.28;1.25;;;17.80;65.90;;;;;;4893761;29;47746;-72
2023/04/16 02:52:40;;;;;;;2.38;1.10;;;17.80;65.80;;;;;;4894492;29;45280;-73
2023/04/16 02:55:08;;;;;;;2.45;1.20;;;17.80;65.70;;;;;;4884519;29;45416;-73
2023/04/16 02:57:35;;;;;;;2.58;1.13;;;17.80;65.80;;;;;;4886788;29;45596;-72
2023/04/16 03:00:03;;;;;;;2.60;1.40;;;17.80;65.90;;;;;;4885714;29;45493;-73
2023/04/16 03:02:30;;;;;;;2.78;1.20;;;17.80;65.80;;;;;;4887873;29;45417;-73
2023/04/16 03:04:58;;;;;;;4.45;1.40;;;17.80;65.90;;;;;;4887927;29;45352;-72
2023/04/16 03:07:25;;;;;;;3.13;1.20;;;17.80;65.90;;;;;;4895669;29;45318;-73
2023/04/16 03:09:52;;;;;;;3.28;1.40;;;17.80;65.80;;;;;;4894142;29;45230;-72
2023/04/16 03:12:19;;;;;;;4.18;1.58;;;17.80;65.80;;;;;;4889179;29;45359;-73
2023/04/16 03:14:45;;;;;;;3.70;1.60;;;17.80;65.70;;;;;;4902904;29;45416;-73
2023/04/16 03:17:12;;;;;;;3.70;1.50;;;17.80;65.80;;;;;;4894397;29;45478;-73
2023/04/16 03:19:39;;;;;;;3.60;1.40;;;17.80;66.00;;;;;;4889370;29;46606;-72
2023/04/16 03:22:07;;;;;;;3.50;1.40;;;17.80;66.10;;;;;;4882167;29;45523;-73
2023/04/16 03:24:34;;;;;;;3.75;1.83;;;17.80;66.20;;;;;;4889102;29;45226;-73
2023/04/16 03:27:01;;;;;;;3.63;1.30;;;17.80;66.10;;;;;;4896749;29;45409;-73
2023/04/16 03:29:28;;;;;;;2.35;1.00;;;17.80;66.30;;;;;;4886967;29;45519;-72
2023/04/16 03:31:55;;;;;;;3.40;1.40;;;17.80;66.20;;;;;;4891662;29;45269;-72
2023/04/16 03:34:22;;;;;;;3.20;1.67;;;17.80;66.20;;;;;;4887997;29;45268;-73
2023/04/16 03:36:48;;;;;;;2.58;1.50;;;17.80;66.20;;;;;;4885346;29;45411;-72
2023/04/16 03:39:17;;;;;;;3.35;1.65;;;17.80;66.10;;;;;;4888716;29;47982;-73
2023/04/16 03:41:43;;;;;;;4.43;1.85;;;17.80;66.00;;;;;;4891066;29;45549;-72
2023/04/16 03:44:10;;;;;;;3.03;1.60;;;17.80;65.90;;;;;;4888591;29;45380;-73
2023/04/16 03:46:37;;;;;;;4.68;1.88;;;17.80;66.00;;;;;;4894093;29;45272;-73
2023/04/16 03:49:04;;;;;;;3.13;1.35;;;17.80;66.00;;;;;;4892155;29;48528;-73
2023/04/16 03:51:30;;;;;;;2.72;1.35;;;17.70;65.90;;;;;;4885425;29;46161;-73
2023/04/16 03:53:57;;;;;;;3.05;1.67;;;17.80;65.90;;;;;;4888245;29;45404;-73
2023/04/16 03:56:25;;;;;;;2.65;1.40;;;17.80;65.90;;;;;;4884743;29;45234;-73
2023/04/16 03:58:52;;;;;;;3.72;1.55;;;17.80;66.00;;;;;;4891310;29;46966;-72
2023/04/16 04:01:19;;;;;;;3.00;1.77;;;17.70;66.00;;;;;;4882976;29;45454;-72
2023/04/16 04:03:46;;;;;;;3.80;1.70;;;17.80;66.10;;;;;;4888522;29;45482;-73
2023/04/16 04:06:12;;;;;;;3.30;1.52;;;17.80;66.30;;;;;;4887212;29;45506;-72
2023/04/16 04:08:39;;;;;;;6.00;1.60;;;17.80;66.30;;;;;;4888831;29;46403;-72
2023/04/16 04:11:06;;;;;;;4.40;1.75;;;17.80;66.40;;;;;;4888459;29;45360;-73
2023/04/16 04:13:34;;;;;;;3.38;1.65;;;17.80;66.30;;;;;;4884516;29;45249;-73
2023/04/16 04:16:01;;;;;;;2.63;1.42;;;17.80;66.40;;;;;;4885876;29;45485;-73
2023/04/16 04:18:28;;;;;;;3.95;1.73;;;17.80;66.40;;;;;;4881889;29;46293;-72
2023/04/16 04:20:55;;;;;;;3.95;1.83;;;17.80;66.40;;;;;;4887551;29;45413;-73
2023/04/16 04:23:21;;;;;;;2.97;1.65;;;17.80;66.30;;;;;;4888454;29;45288;-73
2023/04/16 04:25:48;;;;;;;4.72;2.00;;;17.80;66.30;;;;;;4887547;29;45460;-73
2023/04/16 04:28:15;;;;;;;2.97;1.50;;;17.80;66.20;;;;;;4889467;29;48316;-73
2023/04/16 04:30:43;;;;;;;4.85;2.20;;;17.80;66.10;;;;;;4893966;29;45461;-73
2023/04/16 04:33:10;;;;;;;3.95;1.95;;;17.80;66.10;;;;;;4886542;29;45319;-73
2023/04/16 04:35:36;;;;;;;2.92;1.70;;;17.80;66.10;;;;;;4888193;29;45419;-73
2023/04/16 04:38:05;;;;;;;2.30;1.38;;;17.70;66.10;;;;;;4877498;29;46851;-73
2023/04/16 04:40:32;;;;;;;3.45;1.73;;;17.80;66.30;;;;;;4888040;29;45423;-72
2023/04/16 04:42:58;;;;;;;4.03;1.92;;;17.80;66.10;;;;;;4884827;29;45466;-72
2023/04/16 04:45:25;;;;;;;3.13;1.73;;;17.80;66.20;;;;;;4887687;29;45414;-73
2023/04/16 04:47:53;;;;;;;3.25;1.90;;;17.80;66.30;;;;;;4888162;29;46355;-73
2023/04/16 04:50:21;;;;;;;3.78;1.88;;;17.80;66.30;;;;;;4894578;29;45271;-73
2023/04/16 04:52:48;;;;;;;3.08;1.80;;;17.80;66.30;;;;;;4904900;29;45398;-73
2023/04/16 04:55:15;;;;;;;3.60;1.95;;;17.70;66.10;;;;;;4896985;29;45318;-73
2023/04/16 04:57:42;;;;;;;2.60;1.80;;;17.70;65.90;;;;;;4887953;29;45468;-72
2023/04/16 05:00:09;;;;;;;3.70;1.73;;;17.70;65.70;;;;;;4885677;29;45251;-73
2023/04/16 05:02:37;;;;;;;4.20;2.35;;;17.70;65.50;;;;;;4887449;29;45380;-73
2023/04/16 05:05:06;;;;;;;3.92;1.85;;;17.70;65.50;;;;;;4881136;29;45444;-72
2023/04/16 05:07:33;;;;;;;3.63;2.13;;;17.70;65.40;;;;;;4886019;29;45231;-72
2023/04/16 05:09:59;;;;;;;3.25;2.03;;;17.80;65.50;;;;;;4882494;29;45294;-72
2023/04/16 05:12:26;;;;;;;4.00;2.08;;;17.80;65.50;;;;;;4885832;29;45537;-72
2023/04/16 05:14:53;;;;;;;5.15;2.40;;;17.80;65.40;;;;;;4890571;29;45372;-72
2023/04/16 05:17:20;;;;;;;3.58;1.92;;;17.80;65.40;;;;;;4883009;29;46648;-72
2023/04/16 05:19:47;;;;;;;3.88;1.88;;;17.80;65.50;;;;;;4893230;29;46244;-72
2023/04/16 05:22:17;;;;;;;3.60;2.08;;;17.80;65.50;;;;;;4885579;29;45400;-72
2023/04/16 05:24:45;;;;;;;3.85;2.00;;;17.80;65.50;;;;;;4885760;29;45394;-72
2023/04/16 05:27:11;;;;;;;2.38;1.80;;;17.80;65.70;;;;;;4885086;29;46649;-72
2023/04/16 05:29:38;;;;;;;7.38;2.72;;;17.80;65.70;;;;;;4884157;29;45433;-72
2023/04/16 05:32:05;;;;;;;5.30;2.10;;;17.80;65.80;;;;;;4886557;29;45299;-73
2023/04/16 05:34:32;;;;;;;3.65;1.92;;;17.80;65.90;;;;;;4895003;29;45313;-73
2023/04/16 05:36:59;;;;;;;4.93;2.05;;;17.80;65.90;;;;;;4885469;29;48339;-72
2023/04/16 05:39:27;;;;;;;3.72;1.92;;;17.80;66.00;;;;;;4879351;29;45481;-73
2023/04/16 05:41:54;;;;;;;4.78;1.92;;;17.80;66.10;;;;;;4881126;29;45470;-72
2023/04/16 05:44:21;;;;;;;5.60;2.35;;;17.90;66.10;;;;;;4889262;29;45263;-73
2023/04/16 05:46:48;;;;;;;3.15;1.95;;;17.90;66.00;;;;;;4886520;29;47025;-72
2023/04/16 05:49:14;;;;;;;3.50;1.88;;;17.90;66.20;;;;;;4883236;29;45238;-73
2023/04/16 05:51:41;;;;;;;4.25;1.85;;;17.90;66.10;;;;;;4883107;29;45473;-73
2023/04/16 05:54:08;;;;;;;3.55;1.70;;;17.90;66.10;;;;;;4885001;29;45313;-73
2023/04/16 05:56:36;;;;;;;3.63;2.20;;;17.80;66.10;;;;;;4887127;29;45271;-73
2023/04/16 05:59:03;;;;;;;3.72;1.95;;;17.80;66.10;;;;;;4887238;29;45489;-73
2023/04/16 06:01:30;;;;;;;3.35;1.92;;;17.80;66.10;;;;;;4885127;29;45508;-73
2023/04/16 06:03:58;;;;;;;2.85;1.92;;;17.80;66.20;;;;;;4869272;29;45916;-72
2023/04/16 06:06:26;;;;;;;3.78;2.28;;;17.80;66.20;;;;;;4886584;29;47507;-73
2023/04/16 06:08:52;;;;;;;3.75;2.10;;;17.80;66.30;;;;;;4886844;29;45400;-73
2023/04/16 06:11:19;;;;;;;3.55;1.77;;;17.80;66.20;;;;;;4889233;29;45459;-73
2023/04/16 06:13:47;;;;;;;5.15;2.15;;;17.80;66.20;;;;;;4889507;29;45476;-73
2023/04/16 06:16:14;;;;;;;4.38;2.10;;;17.80;66.10;;;;;;4888139;29;46441;-72
2023/04/16 06:18:41;;;;;;;4.53;1.80;;;17.80;66.30;;;;;;4888126;29;45339;-72
2023/04/16 06:21:08;;;;;;;3.22;2.00;;;17.80;66.30;;;;;;4887017;29;45286;-74
2023/04/16 06:23:34;;;;;;;3.83;2.20;;;17.80;66.40;;;;;;4884439;29;45531;-73
2023/04/16 06:26:01;;;;;;;5.07;2.17;;;17.80;66.60;;;;;;4882988;29;45497;-73
2023/04/16 06:28:28;;;;;;;4.40;1.90;;;17.90;66.70;;;;;;4882988;29;45310;-73
2023/04/16 06:30:56;;;;;;;3.42;1.88;;;17.90;66.70;;;;;;4884928;29;45405;-73
2023/04/16 06:33:23;;;;;;;4.80;2.25;;;17.90;66.70;;;;;;4886424;29;45474;-73
2023/04/16 06:35:50;;;;;;;3.88;2.03;;;17.90;66.80;;;;;;4890218;29;47978;-72
2023/04/16 06:38:17;;;;;;;3.78;2.00;;;17.80;66.70;;;;;;4891610;29;45252;-72
2023/04/16 06:40:44;;;;;;;3.00;1.92;;;17.80;66.80;;;;;;4889634;29;45279;-72
2023/04/16 06:43:11;;;;;;;5.07;2.33;;;17.80;66.80;;;;;;4885832;29;45413;-72
2023/04/16 06:45:38;;;;;;;4.40;2.20;;;17.80;66.80;;;;;;4887816;29;47105;-72
2023/04/16 06:48:06;;;;;;;5.35;2.50;;;17.80;67.80;;;;;;4889364;29;45351;-72
2023/04/16 06:50:34;;;;;;;4.65;2.40;;;17.80;66.60;;;;;;4888399;29;45502;-72
2023/04/16 06:53:00;;;;;;;3.30;2.45;;;17.80;66.70;;;;;;4881806;29;45561;-72
2023/04/16 06:55:27;;;;;;;3.80;2.47;;;17.80;66.70;;;;;;4885552;29;45498;-72
2023/04/16 06:57:54;;;;;;;5.07;2.58;;;17.80;66.60;;;;;;4885864;29;45409;-72
2023/04/16 07:00:21;;;;;;;5.20;2.50;;;17.80;66.60;;;;;;4895802;29;45372;-72
2023/04/16 07:02:48;;;;;;;4.88;2.47;;;17.80;66.80;;;;;;4889645;29;45242;-73
2023/04/16 07:05:16;;;;;;;5.13;2.35;;;17.80;66.80;;;;;;4896820;29;48332;-72
2023/04/16 07:07:43;;;;;;;3.75;2.30;;;17.80;66.90;;;;;;4887578;29;45498;-72
2023/04/16 07:10:10;;;;;;;2.67;2.08;;;17.80;66.80;;;;;;4889657;29;45346;-72
2023/04/16 07:12:37;;;;;;;3.70;2.35;;;17.80;66.80;;;;;;4890503;29;45295;-72
2023/04/16 07:15:05;;;;;;;4.18;2.42;;;17.80;67.00;;;;;;4883033;29;46693;-72
2023/04/16 07:17:32;;;;;;;3.47;1.85;;;17.80;67.00;;;;;;4897045;29;45417;-72
2023/04/16 07:19:59;;;;;;;3.97;1.90;;;17.80;67.10;;;;;;4889482;29;45414;-72
2023/04/16 07:22:27;;;;;;;3.60;2.10;;;17.80;67.10;;;;;;4889229;29;45696;-72
2023/04/16 07:24:53;;;;;;;2.78;2.00;;;17.80;67.00;;;;;;4902949;29;47736;-71
2023/04/16 07:27:20;;;;;;;3.97;2.17;;;17.80;67.00;;;;;;4888785;29;45428;-72
2023/04/16 07:29:49;;;;;;;2.45;1.80;;;17.80;67.00;;;;;;4890721;29;45243;-72
2023/04/16 07:32:15;;;;;;;3.10;2.10;;;17.80;67.00;;;;;;4890698;29;45452;-73
2023/04/16 07:34:42;;;;;;;3.20;2.10;;;17.80;66.80;;;;;;4894414;29;48312;-72
2023/04/16 07:37:09;;;;;;;3.78;2.15;;;17.80;66.90;;;;;;4889767;29;45307;-72
2023/04/16 07:39:37;;;;;;;4.05;2.38;;;17.80;66.80;;;;;;4904327;29;45335;-72
2023/04/16 07:42:04;;;;;;;4.95;2.45;;;17.80;66.80;;;;;;4887641;29;45505;-72
2023/04/16 07:44:31;;;;;;;3.35;2.30;;;17.80;66.80;;;;;;4890144;29;47287;-73
2023/04/16 07:46:58;;;;;;;3.67;2.00;;;17.80;66.80;;;;;;4895254;29;45446;-74
2023/04/16 07:49:24;;;;;;;4.50;2.25;;;17.80;66.90;;;;;;4900731;29;45379;-73
2023/04/16 07:51:51;;;;;;;4.50;2.42;;;17.90;66.90;;;;;;4899875;29;45457;-72
2023/04/16 07:54:18;;;;;;;4.97;2.50;;;17.90;67.00;;;;;;4897704;29;46543;-72
2023/04/16 07:56:47;;;;;;;5.32;2.90;;;17.90;67.00;;;;;;4895864;29;45420;-72
2023/04/16 07:59:13;;;;;;;4.53;2.72;;;17.90;67.00;;;;;;4887258;29;45473;-72
2023/04/16 08:01:40;;;;;;;4.90;2.47;;;17.90;67.00;;;;;;4891970;29;45408;-73
2023/04/16 08:04:07;;;;;;;6.03;2.90;;;17.90;66.90;;;;;;4888163;29;47661;-73
2023/04/16 08:06:34;;;;;;;4.60;2.95;;;17.90;66.80;;;;;;4888598;29;45520;-73
2023/04/16 08:09:01;;;;;;;4.75;2.72;;;17.90;66.80;;;;;;4888709;29;45608;-73
2023/04/16 08:11:28;;;;;;;7.18;2.97;;;17.90;66.90;;;;;;4887968;29;45487;-72
2023/04/16 08:13:56;;;;;;;4.28;2.70;;;17.90;66.90;;;;;;4888749;29;48913;-72
2023/04/16 08:16:23;;;;;;;4.50;2.90;;;17.90;67.00;;;;;;4887262;29;45238;-72
2023/04/16 08:18:49;;;;;;;6.07;3.42;;;17.90;67.00;;;;;;4889522;29;45543;-72
2023/04/16 08:21:16;;;;;;;5.95;3.40;;;17.90;67.00;;;;;;4888367;29;45292;-72
2023/04/16 08:23:43;;;;;;;5.50;3.15;;;17.80;67.00;;;;;;4887641;29;46601;-72
2023/04/16 08:26:10;;;;;;;8.95;3.20;;;17.80;66.90;;;;;;4887385;29;45253;-71
2023/04/16 08:28:37;;;;;;;6.85;3.65;;;17.80;66.90;;;;;;4888501;29;45258;-72
2023/04/16 08:31:05;;;;;;;6.22;3.40;;;17.90;67.00;;;;;;4887676;29;45562;-73
2023/04/16 08:33:32;;;;;;;5.82;3.50;;;17.90;66.90;;;;;;4883130;29;46626;-72
2023/04/16 08:35:59;;;;;;;7.38;3.63;;;17.90;67.00;;;;;;4879950;29;45773;-72
2023/04/16 08:38:26;;;;;;;5.22;3.22;;;17.90;67.10;;;;;;4882105;29;45430;-72
2023/04/16 08:40:54;;;;;;;5.80;3.40;;;17.90;67.00;;;;;;4885009;29;45509;-72
2023/04/16 08:43:23;;;;;;;6.00;3.70;;;17.90;67.00;;;;;;4885868;29;48480;-72
2023/04/16 08:45:55;;;;;;;6.85;4.20;;;17.90;66.90;;;;;;4895419;29;45418;-72
2023/04/16 08:48:24;;;;;;;5.35;3.55;;;17.90;66.80;;;;;;4887001;29;45515;-72
2023/04/16 08:50:52;;;;;;;6.47;3.83;;;17.90;66.70;;;;;;4895168;29;45390;-72
2023/04/16 08:53:25;;;;;;;5.55;3.40;;;17.90;66.70;;;;;;4890124;29;47337;-72
2023/04/16 08:55:53;;;;;;;7.80;3.88;;;17.90;66.90;;;;;;4892435;29;45244;-72
2023/04/16 08:58:21;;;;;;;7.28;4.05;;;17.90;66.80;;;;;;4888094;29;45491;-72
2023/04/16 09:00:49;;;;;;;7.00;4.05;;;17.90;66.90;;;;;;4893481;29;45417;-72
2023/04/16 09:03:18;;;;;;;7.03;4.25;;;17.90;67.00;;;;;;4890247;29;47098;-72
2023/04/16 09:05:47;;;;;;;6.88;3.97;;;17.90;66.90;;;;;;4898247;29;45719;-72
2023/04/16 09:08:14;;;;;;;6.90;4.07;;;17.90;66.90;;;;;;4889552;29;45299;-72
2023/04/16 09:10:42;;;;;;;6.53;4.20;;;17.90;66.90;;;;;;4901074;29;45343;-72
2023/04/16 09:13:12;;;;;;;7.28;4.20;;;17.90;66.90;;;;;;4889535;29;47827;-72
2023/04/16 09:15:40;;;;;;;6.93;4.07;;;17.90;66.90;;;;;;4890220;29;45617;-72
2023/04/16 09:18:07;;;;;;;8.35;4.38;;;17.90;66.90;;;;;;4887810;29;45226;-72
2023/04/16 09:20:34;;;;;;;5.72;3.60;;;17.90;67.00;;;;;;4895566;29;45308;-72
2023/04/16 09:23:02;;;;;;;9.43;4.10;;;17.90;67.00;;;;;;4887058;29;47923;-72
2023/04/16 09:25:34;;;;;;;8.05;4.20;;;17.90;66.90;;;;;;4882838;29;45413;-72
2023/04/16 09:28:01;;;;;;;6.60;3.92;;;17.90;66.90;;;;;;4890507;29;45390;-72
2023/04/16 09:30:28;;;;;;;7.93;3.70;;;17.90;66.90;;;;;;4883560;29;45255;-72
2023/04/16 09:33:15;;;;;;;7.22;3.80;;;17.90;66.80;;;;;;4891539;29;46889;-72
2023/04/16 09:35:46;;;;;;;8.32;4.35;;;17.90;66.80;;;;;;4887238;29;45377;-73
2023/04/16 09:38:14;;;;;;;6.32;4.20;;;17.90;66.70;;;;;;4887516;29;45428;-72
2023/04/16 09:40:41;;;;;;;6.97;4.25;;;17.90;66.80;;;;;;4886661;29;45290;-72
2023/04/16 09:43:11;;;;;;;7.43;4.40;;;17.90;66.80;;;;;;4895884;29;45321;-72
2023/04/16 09:45:49;;;;;;;6.57;4.55;;;17.90;66.80;;;;;;4893510;29;45427;-72
2023/04/16 09:48:16;;;;;;;8.13;4.40;;;17.90;66.80;;;;;;4889542;29;45557;-72
2023/04/16 09:50:50;;;;;;;7.50;4.13;;;17.90;67.80;;;;;;4906493;29;45376;-72
2023/04/16 09:53:25;;;;;;;5.75;3.97;;;17.90;66.80;;;;;;4887904;29;45673;-72
2023/04/16 09:55:52;;;;;;;7.45;4.00;;;17.90;66.80;;;;;;4894837;29;45521;-73
2023/04/16 09:58:19;;;;;;;8.45;4.63;;;17.90;66.80;;;;;;4887029;29;45409;-72
2023/04/16 10:00:46;;;;;;;8.57;3.88;;;17.90;66.80;;;;;;4896827;29;45402;-72
2023/04/16 10:03:12;;;;;;;8.77;4.18;;;17.90;66.90;;;;;;4905323;29;46754;-73
2023/04/16 10:05:39;;;;;;;6.68;4.20;;;17.90;66.90;;;;;;4889071;29;45270;-72
2023/04/16 10:08:12;;;;;;;6.00;3.97;;;17.90;66.90;;;;;;4890273;29;45251;-72
2023/04/16 10:10:40;;;;;;;6.25;3.80;;;17.90;66.90;;;;;;4887306;29;45506;-73
2023/04/16 10:13:08;;;;;;;7.97;4.10;;;17.90;66.90;;;;;;4891460;29;45448;-73
2023/04/16 10:15:35;;;;;;;5.47;3.63;;;17.90;67.00;;;;;;4900823;29;45336;-72
2023/04/16 10:18:03;;;;;;;6.25;3.97;;;17.90;66.90;;;;;;4894886;29;45555;-72
2023/04/16 10:20:30;;;;;;;7.60;4.13;;;17.90;66.90;;;;;;4887374;29;45237;-72
2023/04/16 10:22:58;;;;;;;9.57;4.90;;;17.90;66.80;;;;;;4892799;29;47554;-72
2023/04/16 10:25:25;;;;;;;8.30;4.97;;;17.90;66.80;;;;;;4897351;29;45992;-72
2023/04/16 10:27:55;;;;;;;8.00;4.22;;;17.90;66.80;;;;;;4890892;29;45458;-72
2023/04/16 10:30:23;;;;;;;5.72;4.13;;;17.90;66.60;;;;;;4886651;29;45434;-72
2023/04/16 10:32:50;;;;;;;6.60;4.32;;;17.90;66.70;;;;;;4886410;29;48356;-72
2023/04/16 10:35:19;;;;;;;6.60;4.40;;;17.90;67.80;;;;;;4893677;29;45431;-73
2023/04/16 10:37:46;;;;;;;7.65;4.43;;;17.90;66.70;;;;;;4887015;29;45366;-72
2023/04/16 10:40:23;;;;;;;6.57;4.13;;;17.90;66.70;;;;;;4895404;29;45489;-73
2023/04/16 10:42:56;;;;;;;6.28;4.18;;;17.90;66.60;;;;;;4891329;29;46381;-73
2023/04/16 10:45:29;;;;;;;6.35;4.63;;;17.90;66.70;;;;;;4894077;29;45299;-72
2023/04/16 10:47:57;;;;;;;7.25;4.55;;;17.90;66.80;;;;;;4886694;29;45218;-72
2023/04/16 10:50:24;;;;;;;7.60;4.10;;;17.90;66.80;;;;;;4886362;29;45652;-72
2023/04/16 10:53:20;;;;;;;8.73;4.47;;;17.90;66.80;;;;;;4886581;29;47753;-72
2023/04/16 10:56:14;;;;;;;6.72;4.53;;;17.90;66.90;;;;;;4886183;29;45483;-72
2023/04/16 10:58:41;;;;;;;10.93;4.70;;;17.90;66.90;;;;;;4848252;29;45432;-72
2023/04/16 11:01:13;;;;;;;7.70;4.50;;;17.90;66.80;;;;;;4887256;29;45432;-73
2023/04/16 11:03:43;;;;;;;6.30;4.70;;;18.00;67.00;;;;;;4885429;29;48511;-73
2023/04/16 11:06:12;;;;;;;9.57;4.82;;;18.00;66.80;;;;;;4900398;29;45283;-72
2023/04/16 11:08:42;;;;;;;6.75;4.38;;;17.90;66.80;;;;;;4894179;29;45248;-73
2023/04/16 11:11:09;;;;;;;8.50;4.68;;;17.90;66.70;;;;;;4886432;29;45371;-72
2023/04/16 11:13:37;;;;;;;7.68;4.40;;;17.90;66.60;;;;;;4890497;29;47485;-72
2023/04/16 11:16:04;;;;;;;7.50;4.75;;;17.90;66.60;;;;;;4896878;29;45415;-72
2023/04/16 11:18:31;;;;;;;8.25;4.60;;;17.90;66.60;;;;;;4886140;29;45406;-72
2023/04/16 11:20:58;;;;;;;6.40;4.32;;;17.90;66.60;;;;;;4893919;29;45434;-72
2023/04/16 11:23:25;;;;;;;7.63;5.07;;;17.90;66.60;;;;;;4887230;29;46549;-72
2023/04/16 11:25:56;;;;;;;8.07;4.82;;;17.90;66.60;;;;;;4889197;29;45226;-72
2023/04/16 11:28:33;;;;;;;6.57;4.45;;;17.90;66.60;;;;;;4905186;29;45429;-72
2023/04/16 11:30:59;;;;;;;6.93;4.38;;;17.90;66.60;;;;;;4896627;29;45292;-72
2023/04/16 11:33:26;;;;;;;6.35;4.20;;;17.90;66.70;;;;;;4904665;29;47110;-72
2023/04/16 11:35:57;;;;;;;6.75;4.20;;;17.90;66.70;;;;;;4889193;29;45338;-72
2023/04/16 11:38:33;;;;;;;5.88;4.40;;;18.00;66.80;;;;;;4892373;29;45463;-72
2023/04/16 11:41:01;;;;;;;8.88;4.18;;;18.00;66.90;;;;;;4891567;29;45860;-73
2023/04/16 11:43:28;;;;;;;7.05;4.35;;;18.00;66.80;;;;;;4888890;29;46732;-72
2023/04/16 11:45:57;;;;;;;6.55;4.50;;;18.00;66.80;;;;;;4888760;29;45416;-72
2023/04/16 11:48:24;;;;;;;7.50;3.90;;;18.00;66.80;;;;;;4888825;29;45382;-72
2023/04/16 11:50:56;;;;;;;6.25;4.20;;;18.00;66.70;;;;;;4896978;29;45720;-72
2023/04/16 11:53:23;;;;;;;7.10;4.10;;;18.00;66.60;;;;;;4894039;29;46556;-72
2023/04/16 11:55:50;;;;;;;6.55;4.43;;;18.00;66.60;;;;;;4899890;29;45686;-72
2023/04/16 11:58:20;;;;;;;8.68;4.78;;;18.00;66.60;;;;;;4890381;29;45212;-72
2023/04/16 12:00:48;;;;;;;7.72;4.28;;;18.00;66.60;;;;;;4888752;29;45329;-73
2023/04/16 12:03:15;;;;;;;6.75;4.60;;;18.00;66.60;;;;;;4888080;29;46464;-72
2023/04/16 12:05:41;;;;;;;5.72;4.38;;;18.00;66.50;;;;;;4888185;29;45389;-72
2023/04/16 12:08:10;;;;;;;6.68;4.13;;;18.00;66.50;;;;;;4888943;29;45235;-73
2023/04/16 12:10:52;;;;;;;6.47;4.20;;;18.00;66.60;;;;;;4901250;29;45290;-73
2023/04/16 12:13:20;;;;;;;5.93;4.07;;;18.00;66.60;;;;;;4904079;29;48246;-72
2023/04/16 12:15:48;;;;;;;5.57;3.90;;;18.00;66.50;;;;;;4893412;29;45925;-72
2023/04/16 12:18:15;;;;;;;6.30;4.57;;;18.00;66.70;;;;;;4896888;29;45542;-72
2023/04/16 12:20:43;;;;;;;5.75;4.00;;;18.00;66.70;;;;;;4892447;29;45633;-72
2023/04/16 12:23:12;;;;;;;5.30;4.18;;;18.00;66.70;;;;;;4889100;29;46873;-72
2023/04/16 12:25:43;;;;;;;7.65;4.03;;;18.00;66.70;;;;;;4898654;29;45618;-72
2023/04/16 12:28:10;;;;;;;6.50;4.10;;;18.00;66.70;;;;;;4891656;29;45223;-72
2023/04/16 12:30:50;;;;;;;5.68;4.30;;;18.00;66.70;;;;;;4903115;29;45353;-72
2023/04/16 12:33:19;;;;;;;6.20;3.92;;;18.00;66.60;;;;;;4888055;29;45576;-72
2023/04/16 12:35:47;;;;;;;7.57;4.32;;;18.00;66.60;;;;;;4887051;29;45567;-72
2023/04/16 12:38:14;;;;;;;6.40;4.18;;;18.00;66.60;;;;;;4888504;29;45269;-72
2023/04/16 12:40:41;;;;;;;6.68;4.38;;;18.00;66.60;;;;;;4889055;29;45731;-72
2023/04/16 12:43:09;;;;;;;5.95;3.83;;;18.00;66.60;;;;;;4888005;29;45503;-72
2023/04/16 12:45:36;;;;;;;6.55;4.28;;;18.00;66.40;;;;;;4890664;29;45446;-72
2023/04/16 12:48:05;;;;;;;6.65;4.25;;;18.00;66.50;;;;;;4888219;29;45406;-73
2023/04/16 12:50:32;;;;;;;6.82;4.38;;;18.00;66.40;;;;;;4899398;29;45340;-72